BEG airport status
LYBE 010030Z 24004KT CAVOK 16/14 Q1018 NOSIG